sensor_id;sensor_type;location;lat;lon;timestamp;P1;durP1;ratioP1;P2;durP2;ratioP2
65279;SDS011;51878;55.748;48.742;2022-07-10T00:00:46;5.78;;;5.18;;
65279;SDS011;51878;55.748;48.742;2022-07-10T00:03:13;5.28;;;4.60;;
65279;SDS011;51878;55.748;48.742;2022-07-10T00:05:41;5.28;;;4.53;;
65279;SDS011;51878;55.748;48.742;2022-07-10T00:08:08;7.38;;;4.90;;
65279;SDS011;51878;55.748;48.742;2022-07-10T00:10:35;8.23;;;4.93;;
65279;SDS011;51878;55.748;48.742;2022-07-10T00:13:03;5.70;;;5.07;;
65279;SDS011;51878;55.748;48.742;2022-07-10T00:15:30;9.90;;;5.40;;
65279;SDS011;51878;55.748;48.742;2022-07-10T00:17:58;7.00;;;4.85;;
65279;SDS011;51878;55.748;48.742;2022-07-10T00:20:26;9.68;;;5.15;;
65279;SDS011;51878;55.748;48.742;2022-07-10T00:22:53;5.65;;;4.50;;
65279;SDS011;51878;55.748;48.742;2022-07-10T00:25:26;4.28;;;3.60;;
65279;SDS011;51878;55.748;48.742;2022-07-10T00:27:53;4.82;;;4.10;;
65279;SDS011;51878;55.748;48.742;2022-07-10T00:30:20;4.25;;;3.75;;
65279;SDS011;51878;55.748;48.742;2022-07-10T00:32:47;4.53;;;3.85;;
65279;SDS011;51878;55.748;48.742;2022-07-10T00:35:14;5.60;;;3.78;;
65279;SDS011;51878;55.748;48.742;2022-07-10T00:37:41;6.40;;;4.03;;
65279;SDS011;51878;55.748;48.742;2022-07-10T00:40:08;4.90;;;4.30;;
65279;SDS011;51878;55.748;48.742;2022-07-10T00:42:36;6.35;;;4.60;;
65279;SDS011;51878;55.748;48.742;2022-07-10T00:45:03;7.50;;;4.97;;
65279;SDS011;51878;55.748;48.742;2022-07-10T00:47:34;8.88;;;5.47;;
65279;SDS011;51878;55.748;48.742;2022-07-10T00:50:01;6.00;;;5.07;;
65279;SDS011;51878;55.748;48.742;2022-07-10T00:52:29;8.90;;;4.82;;
65279;SDS011;51878;55.748;48.742;2022-07-10T00:54:57;6.60;;;5.28;;
65279;SDS011;51878;55.748;48.742;2022-07-10T00:57:24;9.13;;;4.82;;
65279;SDS011;51878;55.748;48.742;2022-07-10T00:59:51;7.53;;;5.13;;
65279;SDS011;51878;55.748;48.742;2022-07-10T01:02:19;5.13;;;4.47;;
65279;SDS011;51878;55.748;48.742;2022-07-10T01:04:46;8.60;;;4.45;;
65279;SDS011;51878;55.748;48.742;2022-07-10T01:07:14;6.13;;;4.60;;
65279;SDS011;51878;55.748;48.742;2022-07-10T01:09:42;5.57;;;4.10;;
65279;SDS011;51878;55.748;48.742;2022-07-10T01:12:11;6.57;;;4.43;;
65279;SDS011;51878;55.748;48.742;2022-07-10T01:14:39;9.80;;;5.15;;
65279;SDS011;51878;55.748;48.742;2022-07-10T01:17:08;7.90;;;5.55;;
65279;SDS011;51878;55.748;48.742;2022-07-10T01:19:35;10.40;;;5.43;;
65279;SDS011;51878;55.748;48.742;2022-07-10T01:22:03;7.85;;;5.30;;
65279;SDS011;51878;55.748;48.742;2022-07-10T01:24:30;8.23;;;5.22;;
65279;SDS011;51878;55.748;48.742;2022-07-10T01:26:57;9.70;;;5.75;;
65279;SDS011;51878;55.748;48.742;2022-07-10T01:29:24;6.05;;;5.00;;
65279;SDS011;51878;55.748;48.742;2022-07-10T01:31:52;8.70;;;5.07;;
65279;SDS011;51878;55.748;48.742;2022-07-10T01:34:22;5.50;;;4.93;;
65279;SDS011;51878;55.748;48.742;2022-07-10T01:36:50;6.05;;;5.25;;
65279;SDS011;51878;55.748;48.742;2022-07-10T01:39:17;8.38;;;5.45;;
65279;SDS011;51878;55.748;48.742;2022-07-10T01:41:45;13.07;;;4.90;;
65279;SDS011;51878;55.748;48.742;2022-07-10T01:44:12;7.38;;;4.85;;
65279;SDS011;51878;55.748;48.742;2022-07-10T01:46:42;10.35;;;4.63;;
65279;SDS011;51878;55.748;48.742;2022-07-10T01:49:11;10.02;;;4.50;;
65279;SDS011;51878;55.748;48.742;2022-07-10T01:51:39;5.65;;;4.30;;
65279;SDS011;51878;55.748;48.742;2022-07-10T01:54:06;8.32;;;4.47;;
65279;SDS011;51878;55.748;48.742;2022-07-10T01:56:33;10.13;;;4.15;;
65279;SDS011;51878;55.748;48.742;2022-07-10T01:59:00;10.93;;;4.55;;
65279;SDS011;51878;55.748;48.742;2022-07-10T02:01:30;8.30;;;4.68;;
65279;SDS011;51878;55.748;48.742;2022-07-10T02:03:58;7.03;;;4.13;;
65279;SDS011;51878;55.748;48.742;2022-07-10T02:06:43;7.18;;;4.40;;
65279;SDS011;51878;55.748;48.742;2022-07-10T02:09:11;6.70;;;4.20;;
65279;SDS011;51878;55.748;48.742;2022-07-10T02:11:38;8.68;;;4.40;;
65279;SDS011;51878;55.748;48.742;2022-07-10T02:14:05;9.00;;;4.57;;
65279;SDS011;51878;55.748;48.742;2022-07-10T02:16:35;5.30;;;4.40;;
65279;SDS011;51878;55.748;48.742;2022-07-10T02:19:02;9.48;;;4.43;;
65279;SDS011;51878;55.748;48.742;2022-07-10T02:21:30;5.10;;;3.95;;
65279;SDS011;51878;55.748;48.742;2022-07-10T02:23:57;6.95;;;4.22;;
65279;SDS011;51878;55.748;48.742;2022-07-10T02:26:24;8.55;;;4.72;;
65279;SDS011;51878;55.748;48.742;2022-07-10T02:28:51;4.78;;;4.05;;
65279;SDS011;51878;55.748;48.742;2022-07-10T02:31:18;7.30;;;4.13;;
65279;SDS011;51878;55.748;48.742;2022-07-10T02:33:45;8.00;;;3.60;;
65279;SDS011;51878;55.748;48.742;2022-07-10T02:36:12;6.15;;;4.05;;
65279;SDS011;51878;55.748;48.742;2022-07-10T02:38:40;6.65;;;4.03;;
65279;SDS011;51878;55.748;48.742;2022-07-10T02:41:07;6.32;;;3.78;;
65279;SDS011;51878;55.748;48.742;2022-07-10T02:43:34;7.07;;;4.03;;
65279;SDS011;51878;55.748;48.742;2022-07-10T02:46:02;11.35;;;4.00;;
65279;SDS011;51878;55.748;48.742;2022-07-10T02:48:29;4.45;;;3.42;;
65279;SDS011;51878;55.748;48.742;2022-07-10T02:50:57;5.03;;;3.97;;
65279;SDS011;51878;55.748;48.742;2022-07-10T02:53:24;6.03;;;4.10;;
65279;SDS011;51878;55.748;48.742;2022-07-10T02:55:51;5.95;;;4.13;;
65279;SDS011;51878;55.748;48.742;2022-07-10T02:58:18;5.55;;;3.63;;
65279;SDS011;51878;55.748;48.742;2022-07-10T03:00:46;6.55;;;3.83;;
65279;SDS011;51878;55.748;48.742;2022-07-10T03:03:13;10.52;;;4.00;;
65279;SDS011;51878;55.748;48.742;2022-07-10T03:05:40;4.55;;;3.58;;
65279;SDS011;51878;55.748;48.742;2022-07-10T03:08:07;6.95;;;3.70;;
65279;SDS011;51878;55.748;48.742;2022-07-10T03:10:34;6.93;;;4.00;;
65279;SDS011;51878;55.748;48.742;2022-07-10T03:13:02;5.43;;;3.63;;
65279;SDS011;51878;55.748;48.742;2022-07-10T03:15:29;4.85;;;3.50;;
65279;SDS011;51878;55.748;48.742;2022-07-10T03:17:56;7.45;;;3.58;;
65279;SDS011;51878;55.748;48.742;2022-07-10T03:20:23;4.28;;;3.47;;
65279;SDS011;51878;55.748;48.742;2022-07-10T03:22:51;5.00;;;3.90;;
65279;SDS011;51878;55.748;48.742;2022-07-10T03:25:18;6.13;;;3.60;;
65279;SDS011;51878;55.748;48.742;2022-07-10T03:27:45;5.75;;;4.00;;
65279;SDS011;51878;55.748;48.742;2022-07-10T03:30:12;6.32;;;3.78;;
65279;SDS011;51878;55.748;48.742;2022-07-10T03:32:39;7.10;;;4.07;;
65279;SDS011;51878;55.748;48.742;2022-07-10T03:35:06;5.40;;;3.92;;
65279;SDS011;51878;55.748;48.742;2022-07-10T03:37:34;6.25;;;3.67;;
65279;SDS011;51878;55.748;48.742;2022-07-10T03:40:01;5.80;;;3.75;;
65279;SDS011;51878;55.748;48.742;2022-07-10T03:42:28;6.88;;;3.95;;
65279;SDS011;51878;55.748;48.742;2022-07-10T03:44:56;5.15;;;3.83;;
65279;SDS011;51878;55.748;48.742;2022-07-10T03:47:23;6.03;;;4.00;;
65279;SDS011;51878;55.748;48.742;2022-07-10T03:49:50;7.03;;;3.95;;
65279;SDS011;51878;55.748;48.742;2022-07-10T03:52:17;4.10;;;3.70;;
65279;SDS011;51878;55.748;48.742;2022-07-10T03:54:44;7.82;;;4.03;;
65279;SDS011;51878;55.748;48.742;2022-07-10T03:57:28;6.50;;;3.80;;
65279;SDS011;51878;55.748;48.742;2022-07-10T04:00:14;6.28;;;3.95;;
65279;SDS011;51878;55.748;48.742;2022-07-10T04:02:41;7.15;;;4.18;;
65279;SDS011;51878;55.748;48.742;2022-07-10T04:05:09;16.00;;;3.65;;
65279;SDS011;51878;55.748;48.742;2022-07-10T04:07:36;4.60;;;3.65;;
65279;SDS011;51878;55.748;48.742;2022-07-10T04:10:03;6.65;;;3.97;;
65279;SDS011;51878;55.748;48.742;2022-07-10T04:12:31;5.47;;;3.58;;
65279;SDS011;51878;55.748;48.742;2022-07-10T04:14:59;5.82;;;3.58;;
65279;SDS011;51878;55.748;48.742;2022-07-10T04:17:26;6.55;;;3.67;;
65279;SDS011;51878;55.748;48.742;2022-07-10T04:19:59;4.72;;;3.30;;
65279;SDS011;51878;55.748;48.742;2022-07-10T04:22:29;4.32;;;3.60;;
65279;SDS011;51878;55.748;48.742;2022-07-10T04:24:56;4.93;;;3.40;;
65279;SDS011;51878;55.748;48.742;2022-07-10T04:27:23;7.13;;;4.13;;
65279;SDS011;51878;55.748;48.742;2022-07-10T04:29:50;6.57;;;3.92;;
65279;SDS011;51878;55.748;48.742;2022-07-10T04:35:03;5.30;;;4.15;;
65279;SDS011;51878;55.748;48.742;2022-07-10T04:37:31;5.97;;;3.95;;
65279;SDS011;51878;55.748;48.742;2022-07-10T04:39:58;5.28;;;4.13;;
65279;SDS011;51878;55.748;48.742;2022-07-10T04:42:25;10.27;;;4.10;;
65279;SDS011;51878;55.748;48.742;2022-07-10T04:44:52;4.53;;;3.80;;
65279;SDS011;51878;55.748;48.742;2022-07-10T04:47:19;6.13;;;4.05;;
65279;SDS011;51878;55.748;48.742;2022-07-10T04:49:47;5.43;;;3.63;;
65279;SDS011;51878;55.748;48.742;2022-07-10T04:52:14;7.63;;;4.18;;
65279;SDS011;51878;55.748;48.742;2022-07-10T04:54:41;6.18;;;4.25;;
65279;SDS011;51878;55.748;48.742;2022-07-10T04:57:09;6.90;;;4.20;;
65279;SDS011;51878;55.748;48.742;2022-07-10T04:59:36;6.55;;;3.97;;
65279;SDS011;51878;55.748;48.742;2022-07-10T05:02:03;9.32;;;4.38;;
65279;SDS011;51878;55.748;48.742;2022-07-10T05:04:30;6.43;;;4.18;;
65279;SDS011;51878;55.748;48.742;2022-07-10T05:06:57;8.18;;;4.15;;
65279;SDS011;51878;55.748;48.742;2022-07-10T05:09:25;6.57;;;4.40;;
65279;SDS011;51878;55.748;48.742;2022-07-10T05:11:52;6.15;;;4.28;;
65279;SDS011;51878;55.748;48.742;2022-07-10T05:14:19;5.28;;;4.18;;
65279;SDS011;51878;55.748;48.742;2022-07-10T05:16:46;5.78;;;3.97;;
65279;SDS011;51878;55.748;48.742;2022-07-10T05:19:13;8.80;;;4.88;;
65279;SDS011;51878;55.748;48.742;2022-07-10T05:21:40;6.85;;;4.47;;
65279;SDS011;51878;55.748;48.742;2022-07-10T05:24:07;10.95;;;5.35;;
65279;SDS011;51878;55.748;48.742;2022-07-10T05:26:35;6.00;;;4.68;;
65279;SDS011;51878;55.748;48.742;2022-07-10T05:29:03;6.07;;;4.05;;
65279;SDS011;51878;55.748;48.742;2022-07-10T05:31:30;7.15;;;4.50;;
65279;SDS011;51878;55.748;48.742;2022-07-10T05:33:57;5.70;;;4.25;;
65279;SDS011;51878;55.748;48.742;2022-07-10T05:36:24;8.68;;;4.80;;
65279;SDS011;51878;55.748;48.742;2022-07-10T05:38:51;7.63;;;4.20;;
65279;SDS011;51878;55.748;48.742;2022-07-10T05:41:18;4.82;;;3.85;;
65279;SDS011;51878;55.748;48.742;2022-07-10T05:43:45;8.63;;;4.20;;
65279;SDS011;51878;55.748;48.742;2022-07-10T05:46:12;7.20;;;4.43;;
65279;SDS011;51878;55.748;48.742;2022-07-10T05:48:40;8.32;;;4.20;;
65279;SDS011;51878;55.748;48.742;2022-07-10T05:51:07;6.88;;;4.28;;
65279;SDS011;51878;55.748;48.742;2022-07-10T05:53:54;5.38;;;3.35;;
65279;SDS011;51878;55.748;48.742;2022-07-10T05:56:21;11.13;;;3.38;;
65279;SDS011;51878;55.748;48.742;2022-07-10T05:58:48;5.03;;;3.00;;
65279;SDS011;51878;55.748;48.742;2022-07-10T06:01:16;9.68;;;3.30;;
65279;SDS011;51878;55.748;48.742;2022-07-10T06:03:43;4.43;;;3.35;;
65279;SDS011;51878;55.748;48.742;2022-07-10T06:06:11;7.78;;;3.13;;
65279;SDS011;51878;55.748;48.742;2022-07-10T06:08:42;4.28;;;3.30;;
65279;SDS011;51878;55.748;48.742;2022-07-10T06:11:11;4.65;;;3.17;;
65279;SDS011;51878;55.748;48.742;2022-07-10T06:13:39;4.32;;;3.17;;
65279;SDS011;51878;55.748;48.742;2022-07-10T06:16:06;3.90;;;2.63;;
65279;SDS011;51878;55.748;48.742;2022-07-10T06:18:33;7.65;;;2.92;;
65279;SDS011;51878;55.748;48.742;2022-07-10T06:21:00;5.75;;;3.17;;
65279;SDS011;51878;55.748;48.742;2022-07-10T06:23:29;4.38;;;2.95;;
65279;SDS011;51878;55.748;48.742;2022-07-10T06:25:56;4.40;;;2.90;;
65279;SDS011;51878;55.748;48.742;2022-07-10T06:28:23;4.18;;;2.75;;
65279;SDS011;51878;55.748;48.742;2022-07-10T06:30:50;6.35;;;3.53;;
65279;SDS011;51878;55.748;48.742;2022-07-10T06:33:23;6.00;;;3.08;;
65279;SDS011;51878;55.748;48.742;2022-07-10T06:35:50;5.00;;;3.05;;
65279;SDS011;51878;55.748;48.742;2022-07-10T06:38:17;3.22;;;2.85;;
65279;SDS011;51878;55.748;48.742;2022-07-10T06:40:44;5.68;;;2.97;;
65279;SDS011;51878;55.748;48.742;2022-07-10T06:43:14;3.53;;;2.67;;
65279;SDS011;51878;55.748;48.742;2022-07-10T06:45:41;4.72;;;3.03;;
65279;SDS011;51878;55.748;48.742;2022-07-10T06:48:08;8.13;;;3.10;;
65279;SDS011;51878;55.748;48.742;2022-07-10T06:50:36;7.07;;;3.20;;
65279;SDS011;51878;55.748;48.742;2022-07-10T06:53:03;4.65;;;3.55;;
65279;SDS011;51878;55.748;48.742;2022-07-10T06:55:30;4.57;;;2.80;;
65279;SDS011;51878;55.748;48.742;2022-07-10T06:57:58;5.32;;;3.03;;
65279;SDS011;51878;55.748;48.742;2022-07-10T07:00:26;5.75;;;2.80;;
65279;SDS011;51878;55.748;48.742;2022-07-10T07:02:53;3.97;;;2.30;;
65279;SDS011;51878;55.748;48.742;2022-07-10T07:05:21;3.63;;;2.28;;
65279;SDS011;51878;55.748;48.742;2022-07-10T07:07:48;3.35;;;2.70;;
65279;SDS011;51878;55.748;48.742;2022-07-10T07:10:15;2.88;;;2.60;;
65279;SDS011;51878;55.748;48.742;2022-07-10T07:12:42;3.70;;;2.70;;
65279;SDS011;51878;55.748;48.742;2022-07-10T07:15:09;5.78;;;2.70;;
65279;SDS011;51878;55.748;48.742;2022-07-10T07:17:40;4.80;;;2.90;;
65279;SDS011;51878;55.748;48.742;2022-07-10T07:20:26;5.10;;;2.70;;
65279;SDS011;51878;55.748;48.742;2022-07-10T07:23:11;2.45;;;2.25;;
65279;SDS011;51878;55.748;48.742;2022-07-10T07:25:39;4.10;;;2.55;;
65279;SDS011;51878;55.748;48.742;2022-07-10T07:28:16;5.18;;;2.55;;
65279;SDS011;51878;55.748;48.742;2022-07-10T07:30:48;2.75;;;2.30;;
65279;SDS011;51878;55.748;48.742;2022-07-10T07:33:16;3.08;;;2.10;;
65279;SDS011;51878;55.748;48.742;2022-07-10T07:35:43;2.83;;;2.00;;
65279;SDS011;51878;55.748;48.742;2022-07-10T07:38:10;2.88;;;2.15;;
65279;SDS011;51878;55.748;48.742;2022-07-10T07:40:40;3.85;;;2.03;;
65279;SDS011;51878;55.748;48.742;2022-07-10T07:43:08;5.68;;;2.70;;
65279;SDS011;51878;55.748;48.742;2022-07-10T07:45:35;2.20;;;2.00;;
65279;SDS011;51878;55.748;48.742;2022-07-10T07:48:02;2.42;;;2.08;;
65279;SDS011;51878;55.748;48.742;2022-07-10T07:50:33;4.38;;;1.90;;
65279;SDS011;51878;55.748;48.742;2022-07-10T07:53:03;3.05;;;1.95;;
65279;SDS011;51878;55.748;48.742;2022-07-10T07:55:34;4.32;;;2.15;;
65279;SDS011;51878;55.748;48.742;2022-07-10T07:58:02;4.03;;;2.28;;
65279;SDS011;51878;55.748;48.742;2022-07-10T08:00:30;3.90;;;2.03;;
65279;SDS011;51878;55.748;48.742;2022-07-10T08:02:58;2.17;;;2.00;;
65279;SDS011;51878;55.748;48.742;2022-07-10T08:05:27;2.08;;;1.90;;
65279;SDS011;51878;55.748;48.742;2022-07-10T08:07:56;2.92;;;2.03;;
65279;SDS011;51878;55.748;48.742;2022-07-10T08:10:26;2.65;;;2.25;;
65279;SDS011;51878;55.748;48.742;2022-07-10T08:12:54;3.58;;;2.28;;
65279;SDS011;51878;55.748;48.742;2022-07-10T08:15:21;3.80;;;2.10;;
65279;SDS011;51878;55.748;48.742;2022-07-10T08:17:50;2.33;;;2.00;;
65279;SDS011;51878;55.748;48.742;2022-07-10T08:20:18;4.20;;;2.00;;
65279;SDS011;51878;55.748;48.742;2022-07-10T08:22:46;2.90;;;2.17;;
65279;SDS011;51878;55.748;48.742;2022-07-10T08:25:18;4.53;;;3.88;;
65279;SDS011;51878;55.748;48.742;2022-07-10T08:27:46;3.33;;;2.85;;
65279;SDS011;51878;55.748;48.742;2022-07-10T08:30:13;3.28;;;2.10;;
65279;SDS011;51878;55.748;48.742;2022-07-10T08:32:40;2.95;;;2.10;;
65279;SDS011;51878;55.748;48.742;2022-07-10T08:35:08;3.47;;;2.25;;
65279;SDS011;51878;55.748;48.742;2022-07-10T08:37:40;3.20;;;2.22;;
65279;SDS011;51878;55.748;48.742;2022-07-10T08:40:09;3.03;;;2.20;;
65279;SDS011;51878;55.748;48.742;2022-07-10T08:42:37;3.20;;;2.72;;
65279;SDS011;51878;55.748;48.742;2022-07-10T08:45:04;5.18;;;2.67;;
65279;SDS011;51878;55.748;48.742;2022-07-10T08:47:36;4.43;;;2.88;;
65279;SDS011;51878;55.748;48.742;2022-07-10T08:50:05;7.63;;;3.03;;
65279;SDS011;51878;55.748;48.742;2022-07-10T08:52:44;4.63;;;2.92;;
65279;SDS011;51878;55.748;48.742;2022-07-10T08:55:25;4.22;;;2.75;;
65279;SDS011;51878;55.748;48.742;2022-07-10T08:57:54;5.13;;;2.83;;
65279;SDS011;51878;55.748;48.742;2022-07-10T09:00:22;4.90;;;3.10;;
65279;SDS011;51878;55.748;48.742;2022-07-10T09:02:52;4.60;;;2.47;;
65279;SDS011;51878;55.748;48.742;2022-07-10T09:05:20;3.30;;;2.97;;
65279;SDS011;51878;55.748;48.742;2022-07-10T09:07:48;4.25;;;2.85;;
65279;SDS011;51878;55.748;48.742;2022-07-10T09:10:15;8.77;;;2.90;;
65279;SDS011;51878;55.748;48.742;2022-07-10T09:12:49;7.32;;;3.00;;
65279;SDS011;51878;55.748;48.742;2022-07-10T09:15:18;5.80;;;3.20;;
65279;SDS011;51878;55.748;48.742;2022-07-10T09:17:50;6.88;;;3.50;;
65279;SDS011;51878;55.748;48.742;2022-07-10T09:22:53;6.55;;;3.20;;
65279;SDS011;51878;55.748;48.742;2022-07-10T09:25:20;4.63;;;3.35;;
65279;SDS011;51878;55.748;48.742;2022-07-10T09:27:51;3.90;;;3.03;;
65279;SDS011;51878;55.748;48.742;2022-07-10T09:33:16;4.70;;;3.20;;
65279;SDS011;51878;55.748;48.742;2022-07-10T09:36:08;3.78;;;3.10;;
65279;SDS011;51878;55.748;48.742;2022-07-10T09:38:56;4.20;;;3.25;;
65279;SDS011;51878;55.748;48.742;2022-07-10T09:41:25;4.18;;;3.15;;
65279;SDS011;51878;55.748;48.742;2022-07-10T09:43:59;3.80;;;3.08;;
65279;SDS011;51878;55.748;48.742;2022-07-10T09:46:32;5.30;;;2.90;;
65279;SDS011;51878;55.748;48.742;2022-07-10T09:49:04;5.28;;;2.85;;
65279;SDS011;51878;55.748;48.742;2022-07-10T09:51:45;5.63;;;3.00;;
65279;SDS011;51878;55.748;48.742;2022-07-10T09:54:15;3.45;;;2.67;;
65279;SDS011;51878;55.748;48.742;2022-07-10T09:56:46;4.50;;;2.70;;
65279;SDS011;51878;55.748;48.742;2022-07-10T09:59:18;4.93;;;2.63;;
65279;SDS011;51878;55.748;48.742;2022-07-10T10:01:50;6.53;;;2.50;;
65279;SDS011;51878;55.748;48.742;2022-07-10T10:04:19;2.80;;;2.53;;
65279;SDS011;51878;55.748;48.742;2022-07-10T10:06:51;4.10;;;2.75;;
65279;SDS011;51878;55.748;48.742;2022-07-10T10:12:07;5.47;;;2.80;;
65279;SDS011;51878;55.748;48.742;2022-07-10T10:14:57;7.47;;;2.88;;
65279;SDS011;51878;55.748;48.742;2022-07-10T10:17:29;3.42;;;2.50;;
65279;SDS011;51878;55.748;48.742;2022-07-10T10:19:57;3.75;;;2.92;;
65279;SDS011;51878;55.748;48.742;2022-07-10T10:22:46;3.22;;;2.63;;
65279;SDS011;51878;55.748;48.742;2022-07-10T10:25:15;4.20;;;2.80;;
65279;SDS011;51878;55.748;48.742;2022-07-10T10:27:46;6.97;;;3.00;;
65279;SDS011;51878;55.748;48.742;2022-07-10T10:30:13;3.30;;;2.60;;
65279;SDS011;51878;55.748;48.742;2022-07-10T10:32:41;8.15;;;2.60;;
65279;SDS011;51878;55.748;48.742;2022-07-10T10:35:08;5.93;;;2.60;;
65279;SDS011;51878;55.748;48.742;2022-07-10T10:37:37;6.38;;;2.22;;
65279;SDS011;51878;55.748;48.742;2022-07-10T10:40:06;6.95;;;3.28;;
65279;SDS011;51878;55.748;48.742;2022-07-10T10:48:04;3.92;;;3.05;;
65279;SDS011;51878;55.748;48.742;2022-07-10T10:51:01;7.53;;;2.65;;
65279;SDS011;51878;55.748;48.742;2022-07-10T10:53:28;4.25;;;2.85;;
65279;SDS011;51878;55.748;48.742;2022-07-10T10:58:41;4.17;;;2.80;;
65279;SDS011;51878;55.748;48.742;2022-07-10T11:09:23;8.00;;;2.83;;
65279;SDS011;51878;55.748;48.742;2022-07-10T11:12:03;4.55;;;2.55;;
65279;SDS011;51878;55.748;48.742;2022-07-10T11:14:36;5.68;;;2.90;;
65279;SDS011;51878;55.748;48.742;2022-07-10T11:17:09;6.10;;;2.75;;
65279;SDS011;51878;55.748;48.742;2022-07-10T11:19:36;4.22;;;2.75;;
65279;SDS011;51878;55.748;48.742;2022-07-10T11:30:16;4.60;;;2.65;;
65279;SDS011;51878;55.748;48.742;2022-07-10T11:32:44;5.57;;;2.60;;
65279;SDS011;51878;55.748;48.742;2022-07-10T11:35:11;5.57;;;2.72;;
65279;SDS011;51878;55.748;48.742;2022-07-10T11:37:52;5.05;;;2.42;;
65279;SDS011;51878;55.748;48.742;2022-07-10T11:40:20;3.97;;;2.90;;
65279;SDS011;51878;55.748;48.742;2022-07-10T11:42:50;3.67;;;2.45;;
65279;SDS011;51878;55.748;48.742;2022-07-10T11:47:50;3.45;;;2.63;;
65279;SDS011;51878;55.748;48.742;2022-07-10T11:50:17;3.55;;;2.78;;
65279;SDS011;51878;55.748;48.742;2022-07-10T11:52:48;2.72;;;2.50;;
65279;SDS011;51878;55.748;48.742;2022-07-10T11:55:17;3.40;;;2.55;;
65279;SDS011;51878;55.748;48.742;2022-07-10T11:57:45;3.95;;;2.42;;
65279;SDS011;51878;55.748;48.742;2022-07-10T12:00:25;7.47;;;2.72;;
65279;SDS011;51878;55.748;48.742;2022-07-10T12:02:53;5.38;;;2.58;;
65279;SDS011;51878;55.748;48.742;2022-07-10T12:07:58;5.00;;;2.50;;
65279;SDS011;51878;55.748;48.742;2022-07-10T12:10:25;2.95;;;2.50;;
65279;SDS011;51878;55.748;48.742;2022-07-10T12:13:29;3.03;;;2.50;;
65279;SDS011;51878;55.748;48.742;2022-07-10T12:15:49;5.53;;;2.78;;
65279;SDS011;51878;55.748;48.742;2022-07-10T12:18:17;3.17;;;2.60;;
65279;SDS011;51878;55.748;48.742;2022-07-10T12:20:46;5.30;;;2.83;;
65279;SDS011;51878;55.748;48.742;2022-07-10T12:23:15;5.05;;;2.80;;
65279;SDS011;51878;55.748;48.742;2022-07-10T12:25:43;2.88;;;2.53;;
65279;SDS011;51878;55.748;48.742;2022-07-10T12:28:11;6.22;;;2.70;;
65279;SDS011;51878;55.748;48.742;2022-07-10T12:30:39;8.52;;;2.65;;
65279;SDS011;51878;55.748;48.742;2022-07-10T12:33:13;4.28;;;2.58;;
65279;SDS011;51878;55.748;48.742;2022-07-10T12:38:30;4.03;;;2.58;;
65279;SDS011;51878;55.748;48.742;2022-07-10T12:43:34;7.68;;;2.50;;
65279;SDS011;51878;55.748;48.742;2022-07-10T12:46:08;4.85;;;2.28;;
65279;SDS011;51878;55.748;48.742;2022-07-10T12:48:39;3.60;;;2.28;;
65279;SDS011;51878;55.748;48.742;2022-07-10T12:51:24;2.80;;;2.33;;
65279;SDS011;51878;55.748;48.742;2022-07-10T12:53:53;6.72;;;2.10;;
65279;SDS011;51878;55.748;48.742;2022-07-10T12:56:30;2.05;;;1.75;;
65279;SDS011;51878;55.748;48.742;2022-07-10T12:58:59;6.25;;;1.90;;
65279;SDS011;51878;55.748;48.742;2022-07-10T13:01:48;2.40;;;2.00;;
65279;SDS011;51878;55.748;48.742;2022-07-10T13:04:14;5.13;;;2.80;;
65279;SDS011;51878;55.748;48.742;2022-07-10T13:06:42;3.88;;;2.25;;
65279;SDS011;51878;55.748;48.742;2022-07-10T13:09:20;3.95;;;2.60;;
65279;SDS011;51878;55.748;48.742;2022-07-10T13:11:49;5.60;;;2.60;;
65279;SDS011;51878;55.748;48.742;2022-07-10T13:14:17;2.42;;;2.22;;
65279;SDS011;51878;55.748;48.742;2022-07-10T13:16:45;4.85;;;2.10;;
65279;SDS011;51878;55.748;48.742;2022-07-10T13:19:12;4.72;;;2.42;;
65279;SDS011;51878;55.748;48.742;2022-07-10T13:21:39;7.05;;;2.20;;
65279;SDS011;51878;55.748;48.742;2022-07-10T13:24:06;4.82;;;2.30;;
65279;SDS011;51878;55.748;48.742;2022-07-10T13:26:33;6.10;;;2.50;;
65279;SDS011;51878;55.748;48.742;2022-07-10T13:29:01;3.60;;;2.35;;
65279;SDS011;51878;55.748;48.742;2022-07-10T13:31:28;6.32;;;2.90;;
65279;SDS011;51878;55.748;48.742;2022-07-10T13:33:55;7.05;;;2.88;;
65279;SDS011;51878;55.748;48.742;2022-07-10T13:36:23;6.38;;;3.30;;
65279;SDS011;51878;55.748;48.742;2022-07-10T13:38:50;7.80;;;3.50;;
65279;SDS011;51878;55.748;48.742;2022-07-10T13:41:18;5.65;;;2.90;;
65279;SDS011;51878;55.748;48.742;2022-07-10T13:43:46;6.97;;;3.17;;
65279;SDS011;51878;55.748;48.742;2022-07-10T13:46:13;6.13;;;3.28;;
65279;SDS011;51878;55.748;48.742;2022-07-10T13:48:40;5.15;;;3.22;;
65279;SDS011;51878;55.748;48.742;2022-07-10T13:51:08;4.68;;;2.95;;
65279;SDS011;51878;55.748;48.742;2022-07-10T13:53:35;4.43;;;3.25;;
65279;SDS011;51878;55.748;48.742;2022-07-10T13:56:04;13.65;;;3.58;;
65279;SDS011;51878;55.748;48.742;2022-07-10T13:58:32;8.77;;;3.17;;
65279;SDS011;51878;55.748;48.742;2022-07-10T14:00:59;8.18;;;3.13;;
65279;SDS011;51878;55.748;48.742;2022-07-10T14:03:26;7.68;;;3.22;;
65279;SDS011;51878;55.748;48.742;2022-07-10T14:05:54;6.93;;;3.03;;
65279;SDS011;51878;55.748;48.742;2022-07-10T14:08:21;4.53;;;3.05;;
65279;SDS011;51878;55.748;48.742;2022-07-10T14:10:48;4.90;;;2.90;;
65279;SDS011;51878;55.748;48.742;2022-07-10T14:13:15;4.68;;;2.63;;
65279;SDS011;51878;55.748;48.742;2022-07-10T14:15:43;5.70;;;2.75;;
65279;SDS011;51878;55.748;48.742;2022-07-10T14:18:11;4.40;;;2.55;;
65279;SDS011;51878;55.748;48.742;2022-07-10T14:20:38;3.88;;;2.78;;
65279;SDS011;51878;55.748;48.742;2022-07-10T14:23:24;3.90;;;2.38;;
65279;SDS011;51878;55.748;48.742;2022-07-10T14:25:51;4.38;;;2.60;;
65279;SDS011;51878;55.748;48.742;2022-07-10T14:28:19;3.40;;;2.42;;
65279;SDS011;51878;55.748;48.742;2022-07-10T14:30:46;3.15;;;2.70;;
65279;SDS011;51878;55.748;48.742;2022-07-10T14:33:17;2.60;;;2.40;;
65279;SDS011;51878;55.748;48.742;2022-07-10T14:35:44;4.00;;;2.58;;
65279;SDS011;51878;55.748;48.742;2022-07-10T14:38:11;3.90;;;2.35;;
65279;SDS011;51878;55.748;48.742;2022-07-10T14:40:38;4.90;;;2.80;;
65279;SDS011;51878;55.748;48.742;2022-07-10T14:43:05;5.18;;;2.10;;
65279;SDS011;51878;55.748;48.742;2022-07-10T14:45:32;3.42;;;2.40;;
65279;SDS011;51878;55.748;48.742;2022-07-10T14:48:19;4.82;;;2.40;;
65279;SDS011;51878;55.748;48.742;2022-07-10T14:50:46;4.88;;;2.35;;
65279;SDS011;51878;55.748;48.742;2022-07-10T14:53:13;2.38;;;2.17;;
65279;SDS011;51878;55.748;48.742;2022-07-10T14:55:41;2.95;;;2.42;;
65279;SDS011;51878;55.748;48.742;2022-07-10T14:58:08;3.22;;;2.25;;
65279;SDS011;51878;55.748;48.742;2022-07-10T15:00:35;4.88;;;2.30;;
65279;SDS011;51878;55.748;48.742;2022-07-10T15:03:02;4.28;;;2.20;;
65279;SDS011;51878;55.748;48.742;2022-07-10T15:05:30;3.42;;;2.58;;
65279;SDS011;51878;55.748;48.742;2022-07-10T15:07:57;3.33;;;2.40;;
65279;SDS011;51878;55.748;48.742;2022-07-10T15:10:24;4.03;;;2.65;;
65279;SDS011;51878;55.748;48.742;2022-07-10T15:12:51;3.47;;;2.70;;
65279;SDS011;51878;55.748;48.742;2022-07-10T15:15:18;3.38;;;2.70;;
65279;SDS011;51878;55.748;48.742;2022-07-10T15:17:45;4.22;;;3.00;;
65279;SDS011;51878;55.748;48.742;2022-07-10T15:20:13;6.03;;;3.10;;
65279;SDS011;51878;55.748;48.742;2022-07-10T15:22:41;5.28;;;3.10;;
65279;SDS011;51878;55.748;48.742;2022-07-10T15:25:09;5.00;;;3.10;;
65279;SDS011;51878;55.748;48.742;2022-07-10T15:27:36;7.68;;;3.03;;
65279;SDS011;51878;55.748;48.742;2022-07-10T15:30:03;5.80;;;3.17;;